Data Viewer

CityStateEastern TimeSourceTempDewPtRHBP5 Min
Precip
Wind
Speed
Wind
Dir
5 Min
Wind
Max
5 Min
Wind
Max
Dir
Fort DixNJ2026-05-09 16:15USFS6352670.003N7ENE
Fort DixNJ2026-05-10 08:05USFS54-3910.002NNW3N
Fort DixNJ2026-05-10 08:35USFS54-3910.001SSE2SE
Fort DixNJ2026-05-10 08:30USFS55-3810.001SE1ESE
Fort DixNJ2026-05-10 08:25USFS54-3810.000WNW3WNW
Fort DixNJ2026-05-10 08:20USFS54-3910.001WSW2NNW
Fort DixNJ2026-05-10 08:15USFS54-3910.000ESE2N
Fort DixNJ2026-05-10 08:10USFS54-3910.001NNW4N
Fort DixNJ2026-05-10 08:00USFS53-3910.002N4NNW
Fort DixNJ2026-05-10 08:45USFS55-3810.002ESE3W
Fort DixNJ2026-05-10 07:55USFS53-3910.003NNW4NNW
Fort DixNJ2026-05-10 07:50USFS53-4010.002ENE3ENE
Fort DixNJ2026-05-10 07:45USFS53-4010.002NNE3ENE
Fort DixNJ2026-05-10 07:40USFS53-4010.003NE3N
Fort DixNJ2026-05-10 07:35USFS52-4010.001NNW2N
Fort DixNJ2026-05-10 07:30USFS52-4010.000NNW2NNE
Fort DixNJ2026-05-10 08:40USFS54-3910.001WNW3SW
Fort DixNJ2026-05-10 08:50USFS55-3910.001ESE2E
Fort DixNJ2026-05-10 07:20USFS52-4010.001NNE3SE
Fort DixNJ2026-05-10 09:35USFS56-3710.001WNW2WNW
Fort DixNJ2026-05-10 10:05USFS59-3120.000W2W
Fort DixNJ2026-05-10 10:00USFS58-3710.001SSW2SSW
Fort DixNJ2026-05-10 09:55USFS57-3710.002SSW3S
Fort DixNJ2026-05-10 09:50USFS57-3710.002WSW3WSW
Fort DixNJ2026-05-10 09:45USFS57-3710.001SW4WNW
Fort DixNJ2026-05-10 09:40USFS56-3710.001NNW3W
Fort DixNJ2026-05-10 09:30USFS56-3710.002WNW3NW
Fort DixNJ2026-05-10 08:55USFS55-3810.002NNW2S
Fort DixNJ2026-05-10 09:25USFS55-3810.003NW4NW
Fort DixNJ2026-05-10 09:20USFS55-3810.001S5NW
Fort DixNJ2026-05-10 09:15USFS55-3710.003NW4NNW
Fort DixNJ2026-05-10 09:10USFS55-3910.001NW2NNW
Fort DixNJ2026-05-10 09:05USFS56-3620.000ENE2N
Fort DixNJ2026-05-10 09:00USFS56-3710.000E3N
Fort DixNJ2026-05-10 07:25USFS5210.002NE3NE
Fort DixNJ2026-05-10 07:15USFS52-4010.000NE5E
Fort DixNJ2026-05-10 10:15USFS60-3410.001W3SSW
Fort DixNJ2026-05-10 05:05USFS4910.002ENE3NE
Fort DixNJ2026-05-10 05:35USFS4910.002ENE3ENE
Fort DixNJ2026-05-10 05:30USFS4910.002NE3NE
Fort DixNJ2026-05-10 05:25USFS4910.002ENE2NE
Fort DixNJ2026-05-10 05:20USFS4910.002NE2ENE
Fort DixNJ2026-05-10 05:15USFS4910.001NE2ENE
Fort DixNJ2026-05-10 05:10USFS4910.001NNE2NE
Fort DixNJ2026-05-10 05:00USFS4910.001NNE4N
Fort DixNJ2026-05-10 05:45USFS4910.002NE3E
Fort DixNJ2026-05-10 04:55USFS4938650.001NE3NNE
Fort DixNJ2026-05-10 04:50USFS4910.003N4N
Fort DixNJ2026-05-10 04:45USFS5010.002NNW3N
Fort DixNJ2026-05-10 04:40USFS5010.001N1N
Fort DixNJ2026-05-10 04:35USFS5010.000NNE2NNE
Fort DixNJ2026-05-10 04:30USFS5010.001NNE2NNE
Fort DixNJ2026-05-10 05:40USFS4910.001ENE3E
Fort DixNJ2026-05-10 05:50USFS4910.003NNW3NNW
Fort DixNJ2026-05-10 07:10USFS5110.005E6E
Fort DixNJ2026-05-10 06:35USFS5010.004N4NNE
Fort DixNJ2026-05-10 07:05USFS5110.003ESE5ENE
Fort DixNJ2026-05-10 07:00USFS5110.002ESE4NNE
Fort DixNJ2026-05-10 06:55USFS5110.002E4NE
Fort DixNJ2026-05-10 06:50USFS5110.001ENE5NE
Fort DixNJ2026-05-10 06:45USFS5110.002NE5NE
Fort DixNJ2026-05-10 06:40USFS5110.001NE3NNE
Fort DixNJ2026-05-10 06:30USFS5010.002N5N
Fort DixNJ2026-05-10 05:55USFS49-3720.004NW5NW
Fort DixNJ2026-05-10 06:25USFS5010.005NNW6N
Fort DixNJ2026-05-10 06:20USFS5010.011NNW7N
Fort DixNJ2026-05-10 06:15USFS5010.005NNE6NNE
Fort DixNJ2026-05-10 06:10USFS4910.004N5N
Fort DixNJ2026-05-10 06:05USFS4910.001NNW8NNW
Fort DixNJ2026-05-10 06:00USFS4910.002W5WNW
Fort DixNJ2026-05-10 10:10USFS59-3420.001W2WNW
Fort DixNJ2026-05-10 10:20USFS59-3410.000NNW4WNW
Fort DixNJ2026-05-10 04:20USFS5010.002NNE2NE
Fort DixNJ2026-05-10 14:10USFS81-1920.003WSW9WNW
Fort DixNJ2026-05-10 14:40USFS82-1920.003WNW8NNW
Fort DixNJ2026-05-10 14:35USFS82-1820.006W9WNW
Fort DixNJ2026-05-10 14:30USFS81-1920.003W9NW
Fort DixNJ2026-05-10 14:25USFS81-1920.000ENE12SW
Fort DixNJ2026-05-10 14:20USFS80-2020.001SSW10W
Fort DixNJ2026-05-10 14:15USFS80-2020.002W7W
Fort DixNJ2026-05-10 14:05USFS80-2020.008WSW8WSW
Fort DixNJ2026-05-10 14:50USFS80-2120.006NW12NW
Fort DixNJ2026-05-10 14:00USFS80-2020.005SW13WSW
Fort DixNJ2026-05-10 13:55USFS79-2120.006NW8WNW
Fort DixNJ2026-05-10 13:50USFS80-2120.003W9W
Fort DixNJ2026-05-10 13:45USFS78-2320.002NW9W
Fort DixNJ2026-05-10 13:40USFS77-2410.003SW11WSW
Fort DixNJ2026-05-10 13:35USFS79-2120.002W7NNE
Fort DixNJ2026-05-10 14:45USFS82-1920.001WNW9WNW
Fort DixNJ2026-05-10 14:55USFS80-2120.001WNW12WNW
Fort DixNJ2026-05-10 13:25USFS77-2510.002SW11WNW
Fort DixNJ2026-05-10 15:40USFS76-2510.005S6ESE
Fort DixNJ2026-05-10 16:10USFS74-2610.001N4N
Fort DixNJ2026-05-10 16:05USFS74-2610.001NNE5ENE
Fort DixNJ2026-05-10 16:00USFS74-2610.002ENE3ENE
Fort DixNJ2026-05-10 15:55USFS74-2510.003ENE5SE
Fort DixNJ2026-05-10 15:50USFS75-2510.003E6ESE
Fort DixNJ2026-05-10 15:45USFS75-2410.004ESE6ENE
Fort DixNJ2026-05-10 15:35USFS78-2310.005NNW10NW
Fort DixNJ2026-05-10 15:00USFS79-2310.004NW13WNW
Fort DixNJ2026-05-10 15:30USFS78-2310.003W9N
Fort DixNJ2026-05-10 15:25USFS78-2310.003WNW9WNW
Fort DixNJ2026-05-10 15:20USFS78-2310.003WNW11WNW
Fort DixNJ2026-05-10 15:15USFS78-2210.001N8WNW
Fort DixNJ2026-05-10 15:10USFS78-2310.002NW10WSW
Fort DixNJ2026-05-10 15:05USFS79-2310.002SSW13NW
Fort DixNJ2026-05-10 13:30USFS78-2410.002WSW7WNW
Fort DixNJ2026-05-10 13:20USFS78-2410.004W10WSW
Fort DixNJ2026-05-10 10:25USFS60-3410.004WSW4WSW
Fort DixNJ2026-05-10 11:05USFS66-3010.002S5SSW
Fort DixNJ2026-05-10 11:35USFS70-2810.000NNW4NNW
Fort DixNJ2026-05-10 11:30USFS69-3110.002WNW6WNW
Fort DixNJ2026-05-10 11:25USFS69-2910.002WSW8W
Fort DixNJ2026-05-10 11:20USFS68-3010.004NW5N
Fort DixNJ2026-05-10 11:15USFS68-2910.000SSE4S
Fort DixNJ2026-05-10 11:10USFS68-2910.001S3SSW
Fort DixNJ2026-05-10 11:00USFS66-3110.001S4SSW
Fort DixNJ2026-05-10 11:45USFS71-2810.003WSW7WSW
Fort DixNJ2026-05-10 10:55USFS65-3010.001SW4SSW
Fort DixNJ2026-05-10 10:50USFS64-3210.003SSW4S
Fort DixNJ2026-05-10 10:45USFS62-3310.001WNW4WSW
Fort DixNJ2026-05-10 10:40USFS62-3410.002S3SSW
Fort DixNJ2026-05-10 10:35USFS62-3310.001WSW4WSW
Fort DixNJ2026-05-10 10:30USFS60-3410.002SSW6WSW
Fort DixNJ2026-05-10 11:40USFS72-2710.001S5SSW
Fort DixNJ2026-05-10 11:50USFS72-2710.004SW6WSW
Fort DixNJ2026-05-10 13:15USFS78-2310.002WSW9W
Fort DixNJ2026-05-10 12:40USFS75-2510.002SW5SW
Fort DixNJ2026-05-10 13:10USFS77-2410.004NW10WNW
Fort DixNJ2026-05-10 13:05USFS76-2510.001ESE7SW
Fort DixNJ2026-05-10 13:00USFS77-2410.002SSW4N
Fort DixNJ2026-05-10 12:55USFS76-2410.002NNW6WSW
Fort DixNJ2026-05-10 12:50USFS75-2610.004WSW7WSW
Fort DixNJ2026-05-10 12:45USFS75-2510.004S7S
Fort DixNJ2026-05-10 12:35USFS74-2610.001SSE6NNW
Fort DixNJ2026-05-10 11:55USFS72-2710.002N6W
Fort DixNJ2026-05-10 12:30USFS73-2610.003N9NW
Fort DixNJ2026-05-10 12:25USFS75-2510.003NNW7WNW
Fort DixNJ2026-05-10 12:20USFS75-2510.002NW10NNW
Fort DixNJ2026-05-10 12:15USFS74-2510.001SSW6SW
Fort DixNJ2026-05-10 12:10USFS74-2510.002NW6SW
Fort DixNJ2026-05-10 12:05USFS73-2710.006WSW8WSW
Fort DixNJ2026-05-10 12:00USFS72-2710.001SW7SSW
Fort DixNJ2026-05-10 04:25USFS5010.001NNE2NNE
Fort DixNJ2026-05-10 04:15USFS5110.002NE2ENE
Fort DixNJ2026-05-09 16:20USFS6453680.002WNW7NNE
Fort DixNJ2026-05-09 20:00USFS5655950.000NE1E
Fort DixNJ2026-05-09 20:30USFS5655970.000E2NE
Fort DixNJ2026-05-09 20:25USFS5655970.001ENE2ENE
Fort DixNJ2026-05-09 20:20USFS5655960.001ENE1ENE
Fort DixNJ2026-05-09 20:15USFS5655960.001E1NE
Fort DixNJ2026-05-09 20:10USFS5655960.000N1NE
Fort DixNJ2026-05-09 20:05USFS5655950.000NNE1NNE
Fort DixNJ2026-05-09 19:55USFS5755950.000E2ESE
Fort DixNJ2026-05-09 20:40USFS5655970.000ESE2SE
Fort DixNJ2026-05-09 19:50USFS5755950.010ESE1ENE
Fort DixNJ2026-05-09 19:45USFS5755950.001E2SE
Fort DixNJ2026-05-09 19:40USFS5756950.001E2ESE
Fort DixNJ2026-05-09 19:35USFS5756940.001E3SSE
Fort DixNJ2026-05-09 19:30USFS5856940.001E2ESE
Fort DixNJ2026-05-09 19:25USFS5856930.002ENE3ENE
Fort DixNJ2026-05-09 20:35USFS5655970.001SE3SE
Fort DixNJ2026-05-09 20:45USFS5555970.001E2ENE
Fort DixNJ2026-05-09 19:15USFS5856920.001NE4ENE
Fort DixNJ2026-05-09 21:30USFS5554990.001ENE3ESE
Fort DixNJ2026-05-09 22:00USFS54541000.002E4E
Fort DixNJ2026-05-09 21:55USFS54541000.003E5E
Fort DixNJ2026-05-09 21:50USFS5454990.001E4E
Fort DixNJ2026-05-09 21:45USFS5554990.002E4ESE
Fort DixNJ2026-05-09 21:40USFS5554990.004ENE4E
Fort DixNJ2026-05-09 21:35USFS5554990.004ESE4E
Fort DixNJ2026-05-09 21:25USFS5554980.002E3ESE
Fort DixNJ2026-05-09 20:50USFS5554970.000NE1NE
Fort DixNJ2026-05-09 21:20USFS5554980.001E3SE
Fort DixNJ2026-05-09 21:15USFS5554980.002ESE3E
Fort DixNJ2026-05-09 21:10USFS5554980.001E3SE
Fort DixNJ2026-05-09 21:05USFS5454980.001ESE2E
Fort DixNJ2026-05-09 21:00USFS5554970.001E2ENE
Fort DixNJ2026-05-09 20:55USFS5554970.002ENE2ENE
Fort DixNJ2026-05-09 19:20USFS5856930.000E3NE
Fort DixNJ2026-05-09 19:10USFS5856930.003NE4NE
Fort DixNJ2026-05-09 22:10USFS54541000.001E4ESE
Fort DixNJ2026-05-09 17:00USFS6452660.005NE11NNE
Fort DixNJ2026-05-09 17:30USFS6352680.006N10N
Fort DixNJ2026-05-09 17:25USFS6352690.003NNE9NNE
Fort DixNJ2026-05-09 17:20USFS6353690.004NNW7NW
Fort DixNJ2026-05-09 17:15USFS6353680.005ENE12NNE
Fort DixNJ2026-05-09 17:10USFS6452660.004ENE9NE
Fort DixNJ2026-05-09 17:05USFS6453660.001NNW9NNE
Fort DixNJ2026-05-09 16:55USFS6453670.006NE6NE
Fort DixNJ2026-05-09 17:40USFS6351670.002NE8N
Fort DixNJ2026-05-09 16:50USFS6355750.003ENE6ENE
Fort DixNJ2026-05-09 16:45USFS6455730.001SE5ENE
Fort DixNJ2026-05-09 16:40USFS6453660.000NW5NNW
Fort DixNJ2026-05-09 16:35USFS6452660.000NE8NNE
Fort DixNJ2026-05-09 16:30USFS6452650.003NW6NW
Fort DixNJ2026-05-09 16:25USFS6452660.001NNE5N
Fort DixNJ2026-05-09 17:35USFS6352670.004NNE11NNE
Fort DixNJ2026-05-09 17:45USFS6352670.006NE10N
Fort DixNJ2026-05-09 19:05USFS5856940.001N3NNE
Fort DixNJ2026-05-09 18:30USFS6054810.000NE6NNE
Fort DixNJ2026-05-09 19:00USFS5856940.001N3NE
Fort DixNJ2026-05-09 18:55USFS5856930.001NE5ENE
Fort DixNJ2026-05-09 18:50USFS5856930.004ENE6ENE
Fort DixNJ2026-05-09 18:45USFS5856910.003ENE6NE
Fort DixNJ2026-05-09 18:40USFS5856910.042N6NE
Fort DixNJ2026-05-09 18:35USFS5955870.022N5ENE
Fort DixNJ2026-05-09 18:25USFS6053780.001N7NE
Fort DixNJ2026-05-09 17:50USFS6352670.005NW11NNE
Fort DixNJ2026-05-09 18:20USFS6153760.002NNE6N
Fort DixNJ2026-05-09 18:15USFS6152730.003N8N
Fort DixNJ2026-05-09 18:10USFS6252700.007N12N
Fort DixNJ2026-05-09 18:05USFS6252690.003NNW11NNW
Fort DixNJ2026-05-09 18:00USFS6252680.004N10NNW
Fort DixNJ2026-05-09 17:55USFS6351670.002E10N
Fort DixNJ2026-05-09 22:05USFS54541000.002ESE4ESE
Fort DixNJ2026-05-09 22:15USFS54541000.002E3E
Fort DixNJ2026-05-10 04:10USFS5110.001NNE2NNE
Fort DixNJ2026-05-10 02:05USFS52-4010.003E3ESE
Fort DixNJ2026-05-10 02:35USFS52-4010.000ESE3SE
Fort DixNJ2026-05-10 02:30USFS52-4010.002SE3ESE
Fort DixNJ2026-05-10 02:25USFS52-4010.002ESE4ESE
Fort DixNJ2026-05-10 02:20USFS5110.001SE3SE
Fort DixNJ2026-05-10 02:15USFS52-4010.001ESE3ESE
Fort DixNJ2026-05-10 02:10USFS51-4010.001ENE3E
Fort DixNJ2026-05-10 02:00USFS5110.001E3E
Fort DixNJ2026-05-10 02:45USFS52-4010.002SSE3SE
Fort DixNJ2026-05-10 01:55USFS52-4010.002ESE4ESE
Fort DixNJ2026-05-10 01:50USFS5210.001SE3E
Fort DixNJ2026-05-10 01:45USFS52-4010.002E2E
Fort DixNJ2026-05-10 01:40USFS52-4010.001E2ESE
Fort DixNJ2026-05-10 01:35USFS5210.001E4ESE
Fort DixNJ2026-05-10 01:30USFS5210.002E3E
Fort DixNJ2026-05-10 02:40USFS52-4010.002SE3SE
Fort DixNJ2026-05-10 02:50USFS51-4010.002SE3SE
Fort DixNJ2026-05-10 01:20USFS52-4010.000ENE3ESE
Fort DixNJ2026-05-10 03:35USFS5110.001ESE3SE
Fort DixNJ2026-05-10 04:05USFS5110.001NNE3NE
Fort DixNJ2026-05-10 04:00USFS5110.002NE2E
Fort DixNJ2026-05-10 03:55USFS5210.001ENE2ESE
Fort DixNJ2026-05-10 03:50USFS5210.001ESE2ESE
Fort DixNJ2026-05-10 03:45USFS52-4010.002E3E
Fort DixNJ2026-05-10 03:40USFS5110.001ESE2ESE
Fort DixNJ2026-05-10 03:30USFS5110.002SSE3SSE
Fort DixNJ2026-05-10 02:55USFS51-4010.001SSE4SE
Fort DixNJ2026-05-10 03:25USFS51-4010.002SSE3SSE
Fort DixNJ2026-05-10 03:20USFS5110.001SE3SE
Fort DixNJ2026-05-10 03:15USFS51-4010.001SE3SE
Fort DixNJ2026-05-10 03:10USFS51-4010.002ESE4SE
Fort DixNJ2026-05-10 03:05USFS5110.003SE4ESE
Fort DixNJ2026-05-10 03:00USFS5110.003ESE4SSE
Fort DixNJ2026-05-10 01:25USFS5210.000SSE2NE
Fort DixNJ2026-05-10 01:15USFS5210.002E4ESE
Fort DixNJ2026-05-09 22:20USFS54541000.003E4E
Fort DixNJ2026-05-09 23:00USFS53531010.001E4E
Fort DixNJ2026-05-09 23:30USFS5310.001ENE3ESE
Fort DixNJ2026-05-09 23:25USFS53-4010.002ESE3SE
Fort DixNJ2026-05-09 23:20USFS53-4010.001E3ESE
Fort DixNJ2026-05-09 23:15USFS53531010.001ESE4E
Fort DixNJ2026-05-09 23:10USFS53531010.000E4ESE
Fort DixNJ2026-05-09 23:05USFS53531010.001NE4ESE
Fort DixNJ2026-05-09 22:55USFS53531010.001E3E
Fort DixNJ2026-05-09 23:40USFS53-4010.001E2ENE
Fort DixNJ2026-05-09 22:50USFS53531010.001ESE5E
Fort DixNJ2026-05-09 22:45USFS53531010.002ESE4E
Fort DixNJ2026-05-09 22:40USFS53531010.003SE4E
Fort DixNJ2026-05-09 22:35USFS54531000.001ESE4ESE
Fort DixNJ2026-05-09 22:30USFS54541010.004ESE6ESE
Fort DixNJ2026-05-09 22:25USFS54541000.002E5ESE
Fort DixNJ2026-05-09 23:35USFS5310.002E3E
Fort DixNJ2026-05-09 23:45USFS5210.002E3E
Fort DixNJ2026-05-10 01:10USFS5210.001E3ENE
Fort DixNJ2026-05-10 00:35USFS52-4010.002SE2SE
Fort DixNJ2026-05-10 01:05USFS5210.000ENE3E
Fort DixNJ2026-05-10 01:00USFS52-4010.002ESE3ENE
Fort DixNJ2026-05-10 00:55USFS52-4010.002E3E
Fort DixNJ2026-05-10 00:50USFS52-4010.001E2E
Fort DixNJ2026-05-10 00:45USFS52-4010.001E3ESE
Fort DixNJ2026-05-10 00:40USFS5210.001E3ESE
Fort DixNJ2026-05-10 00:30USFS52-4010.001SE2ESE
Fort DixNJ2026-05-09 23:50USFS52-4010.001E3E
Fort DixNJ2026-05-10 00:25USFS5210.001SE2SE
Fort DixNJ2026-05-10 00:20USFS5210.001ESE2E
Fort DixNJ2026-05-10 00:15USFS5210.001ESE2ESE
Fort DixNJ2026-05-10 00:10USFS5210.002ENE2ENE
Fort DixNJ2026-05-10 00:05USFS5210.000NE2ENE
Fort DixNJ2026-05-10 00:00USFS5210.001E2ENE
Fort DixNJ2026-05-09 23:55USFS5210.000ENE2E
Fort DixNJ2026-05-10 16:15USFS74-2710.001NW4NNW

Start Date

End Date

Customize the desired timeframe, stations and elements using this form. Drag and drop or click to move items from one list to another or use the defaults below.

Selected Elements

  •  + Temperature
  •  + Dew Point
  •  + Relative Humidity
  •  + Barometric Pressure
  •  + 5 Min Precipitation
  •  + Wind Speed
  •  + Wind Direction
  •  + 5 Min Wind Speed Max
  •  + 5 Min Wind Speed Max Dir

Available Elements

  •  + 1 Hour Precipitation Total
  •  + 12 Hour Precipitation Total
  •  + 15 Min Precipitation
  •  + 15 Min Wind Speed Max
  •  + 24 Hour Precipitation Total
  •  + 3 Hour Precipitation Total
  •  + 48 Hour Precipitation Total
  •  + 5 Min Baro Pressure Avg
  •  + 5 Min Baro Pressure Max
  •  + 5 Min Baro Pressure Min
  •  + 5 Min Battery Voltage Max
  •  + 5 Min Battery Voltage Min
  •  + 5 Min Dew Point Avg
  •  + 5 Min Dew Point Max
  •  + 5 Min Dew Point Min
  •  + 5 Min Relative Humidity Avg
  •  + 5 Min Relative Humidity Max
  •  + 5 Min Relative Humidity Min
  •  + 5 Min Solar Rad Avg
  •  + 5 Min Solar Rad Max
  •  + 5 Min Solar Rad Min
  •  + 5 Min Solar Rad Total
  •  + 5 Min Temperature Avg
  •  + 5 Min Temperature Max
  •  + 5 Min Temperature Min
  •  + 5 Min Wind Direction Avg
  •  + 5 Min Wind Speed Avg
  •  + 5 Min Wind Speed Min
  •  + 6 Hour Precipitation Total
  •  + Battery Voltage
  •  + Heat index
  •  + Snow Depth
  •  + Soil Temperature 1
  •  + Soil Temperature 10cm
  •  + Soil Temperature 2
  •  + Soil Temperature 20cm
  •  + Soil Temperature 3
  •  + Soil Temperature 30cm
  •  + Soil Temperature 4
  •  + Soil Temperature 40cm
  •  + Soil Temperature 50cm
  •  + Soil Temperature 5cm
  •  + Soil Water Content 1
  •  + Soil Water Content 10cm
  •  + Soil Water Content 2
  •  + Soil Water Content 20cm
  •  + Soil Water Content 3
  •  + Soil Water Content 30cm
  •  + Soil Water Content 4
  •  + Soil Water Content 40cm
  •  + Soil Water Content 5
  •  + Soil Water Content 50cm
  •  + Soil Water Content 5cm
  •  + Soil Water Content 6
  •  + Solar Rad Instantaneous
  •  + Wind Chill Temperature

Selected Stations

  •  + Fort Dix, NJ

Available Stations

  •  + Absecon, NJ
  •  + Ahoskie, NC
  •  + Ahoskie, NC
  •  + Akron, OH
  •  + Akron, OH
  •  + Albany, NY
  •  + Allentown, PA
  •  + Altoona, PA
  •  + Ancora Hospital, NJ
  •  + Andover, NJ
  •  + Annapolis, MD
  •  + Ashland, VA
  •  + Ashtabula, OH
  •  + Atglen, PA
  •  + Atlantic City (HADS), NJ
  •  + Atlantic City (U), NJ
  •  + Atlantic City Airport, NJ
  •  + Atlantic City Marina, NJ
  •  + Auburn/Lewiston, ME
  •  + Augusta, ME
  •  + Avalon, NJ
  •  + Baltimore, MD
  •  + Baltimore, MD
  •  + Bangor, ME
  •  + Bar Harbor, ME
  •  + Barnegat (HADS), NJ
  •  + Barnegat Light (U), NJ
  •  + Barre/Montpelier, VT
  •  + Basking Ridge, NJ
  •  + Basking Ridge, NJ
  •  + Beaufort, NC
  •  + Beckley, WV
  •  + Bedford, MA
  •  + Belle Meade (HADS), NJ
  •  + Bellville, NJ
  •  + Belmar, NJ
  •  + Belmar, NJ
  •  + Bennington, VT
  •  + Berkeley Heights, NJ
  •  + Berkeley Twp., NJ
  •  + Berlin, NH
  •  + Bethany Beach - Boardwalk, DE
  •  + Bethany Beach - NGTS, DE
  •  + Beverly, MA
  •  + Binghamton, NY
  •  + Bivalve, NJ
  •  + Blackbird, DE
  •  + Blairstown, NJ
  •  + Block Island, RI
  •  + Blue Bell, PA
  •  + Blue Mountain Lakes, NJ
  •  + Bluefield, WV
  •  + Boonton (U), NJ
  •  + Boston, MA
  •  + Bound Brook (HADS), NJ
  •  + Bradford, PA
  •  + Brick Twp., NJ
  •  + Bridgeboro, NJ
  •  + Bridgeport, CT
  •  + Bridgeville, DE
  •  + Brielle, NJ
  •  + Brookneal, VA
  •  + Buffalo, NY
  •  + Burlington, VT
  •  + Caldwell, NJ
  •  + Cambridge, MD
  •  + Cannistear Reservoir, NJ
  •  + Canoe Brook, NJ
  •  + Cape Hatteras, NC
  •  + Cape May (U), NJ
  •  + Cape May Court House, NJ
  •  + Cape May Harbor (HADS), NJ
  •  + Carneys Point, NJ
  •  + Cedar Bridge, NJ
  •  + Charleston, WV
  •  + Charlotteburg, NJ
  •  + Charlottesburg, NJ
  •  + Charlottesville, VA
  •  + Chatham, MA
  •  + Cherry Hill, NJ
  •  + Cherry Hill (NJDOT), NJ
  •  + Chesapeake, VA
  •  + Chester Borough, NJ
  •  + Chester Springs, PA
  •  + Chester Twp., NJ
  •  + Chesterfield, VA
  •  + Cheswold, DE
  •  + Churchville, MD
  •  + Cincinnati, OH
  •  + Clarksburg, WV
  •  + Claymont, DE
  •  + Clearfield, PA
  •  + Cleveland, OH
  •  + Cleveland, OH
  •  + Clinton (HADS), NJ
  •  + College Park, MD
  •  + Columbus, NJ
  •  + Columbus, OH
  •  + Columbus, OH
  •  + Concord, NH
  •  + Cortland, NY
  •  + Coyle Field, NJ
  •  + Cream Ridge, NJ
  •  + Culpeper, VA
  •  + Cumberland, MD
  •  + Currituck, NC
  •  + Danbury, CT
  •  + Dansville, NY
  •  + Danville, VA
  •  + Dayton, OH
  •  + Dayton, OH
  •  + Defiance, OH
  •  + Delmar, DE
  •  + Dennis Twp., NJ
  •  + Devault, PA
  •  + Dover - DSFS, DE
  •  + Dover - Paradee, DE
  •  + Dover AFB, DE
  •  + Dover Twp., NJ
  •  + Doylestown, PA
  •  + Du Bois, PA
  •  + Dunkirk, NY
  •  + Durham/Duke, NC
  •  + East Brunswick, NJ
  •  + Edenton, NC
  •  + Egg Harbor Twp., NJ
  •  + Elizabeth City, NC
  •  + Elizabeth City, NC
  •  + Elkins, WV
  •  + Ellendale, DE
  •  + Elmira, NY
  •  + Emporia, VA
  •  + Erie, PA
  •  + Essex Fells, NJ
  •  + Ewing, NJ
  •  + Ewingville, NJ
  •  + Fair Hill, MD
  •  + Far Hills (HADS), NJ
  •  + Farmingdale, NJ
  •  + Farmingdale, NY
  •  + Farmville, VA
  •  + Fentress, VA
  •  + Fentress, VA
  •  + Findlay, OH
  •  + Fitchburg, MA
  •  + Flatbrookville, NJ
  •  + Folsom (U), NJ
  •  + Forsythe, NJ
  •  + Fort Meade, MD
  •  + Fortescue, NJ
  •  + Four Bridges, NJ
  •  + Franklin, NJ
  •  + Franklin, VA
  •  + Franklin Lakes, NJ
  •  + Franklin Twp. (Somerset), NJ
  •  + Frederica, DE
  •  + Freehold Twp., NJ
  •  + Fryeburg, ME
  •  + Fulton, NY
  •  + Garrett Mountain, NJ
  •  + Georgetown, DE
  •  + Georgetown, DE
  •  + Glasgow, DE
  •  + Glen Gardner (HADS), NJ
  •  + Glenmoore, PA
  •  + Glens Falls, NY
  •  + Gooseneck Pt. Bridge, NJ
  •  + Greenville, DE
  •  + Greenwich, NJ
  •  + Greenwich, NJ
  •  + Greenwich (Warren), NJ
  •  + Greenwood, DE
  •  + Groton–New London, CT
  •  + Hackensack, NJ
  •  + Hackettstown, NJ
  •  + Hagerstown, MD
  •  + Halifax, NC
  •  + Halifax, NC
  •  + Hamilton, NJ
  •  + Hamilton, NY
  •  + Hamilton, OH
  •  + Hamilton Twp. (Atlantic), NJ
  •  + Hamilton Twp. (Mercer), NJ
  •  + Hammonton, NJ
  •  + Hancocks Bridge, NJ
  •  + Harbeson, DE
  •  + Harrington, DE
  •  + Harrisburg, PA
  •  + Harrisburg, PA
  •  + Harrison, NJ
  •  + Hartford, CT
  •  + Harvey Cedars, NJ
  •  + Haworth, NJ
  •  + Hazleton, PA
  •  + Head of River (HADS), NJ
  •  + Henderson-Oxford, NC
  •  + Henderson-Oxford, NC
  •  + High Point, NJ
  •  + High Point Monument, NJ
  •  + Highlands Bridge, NJ
  •  + Hillsborough-Duke, NJ
  •  + Hockessin - Mt. Cuba, DE
  •  + Hockessin - VFC, DE
  •  + Holmdel, NJ
  •  + Hopewell Twp., NJ
  •  + Hot Springs, VA
  •  + Howell, NJ
  •  + Huntington, WV
  •  + Hyannis, MA
  •  + Indian River Inlet, DE
  •  + Inside Thorofare Atlantic City, NJ
  •  + Ironia, NJ
  •  + Islip, NY
  •  + Ithaca, NY
  •  + Jackson, NJ
  •  + Jaffrey, NH
  •  + Jersey City, NJ
  •  + Jersey City (NJDOT), NJ
  •  + Johnstown, NY
  •  + Johnstown, PA
  •  + Jones Crossroads, DE
  •  + Keansburg (HADS), NJ
  •  + Keansburg (U), NJ
  •  + Keene, NH
  •  + Kennet Square - Bucktoe, PA
  •  + Kennet Square - Longwood, PA
  •  + Kenton, DE
  •  + Kingwood, NJ
  •  + Kitts Hummock, DE
  •  + Knowlton Twp., NJ
  •  + Lafayette, NJ
  •  + Lake Hopatcong (HADS), NJ
  •  + Lakehurst, NJ
  •  + Lakewood, NJ
  •  + Lancaster, OH
  •  + Lancaster, PA
  •  + Langley, VA
  •  + Laurel, DE
  •  + Lawrence, MA
  •  + Lawrenceville, VA
  •  + Lebanon, NH
  •  + Leesburg, VA
  •  + Lehighton, PA
  •  + Leonardtown, MD
  •  + Lewes - Nassau, DE
  •  + Lewes - University, DE
  •  + Lima, OH
  •  + Lincoln Park, NJ
  •  + Linden, NJ
  •  + Little Egg Harbor Twp., NJ
  •  + Little Falls, NJ
  •  + Little Falls, NJ
  •  + Loch Lomond, PA
  •  + Lodi, NJ
  •  + Logan Twp., NJ
  •  + Logan Twp. (NJDOT), NJ
  •  + Lorain Elyria, OH
  •  + Louisburg, NC
  •  + Louisburg, NC
  •  + Lower Alloways Creek, NJ
  •  + Lower Twp. (NJDOT), NJ
  •  + Lynchburg, VA
  •  + Lyndhurst, NJ
  •  + Manasquan, NJ
  •  + Manchester, NH
  •  + Mannington Twp., NJ
  •  + Mansfield, NJ
  •  + Mansfield Twp. (NJDOT), NJ
  •  + MansfieldOhio, OH
  •  + Manteo, NC
  •  + Mantoloking, NJ
  •  + Maplewood, NJ
  •  + Margate, NJ
  •  + Marion, OH
  •  + Marshallton, PA
  •  + Marshfield, MA
  •  + Martin County Airport, NC
  •  + Martinsburg, WV
  •  + Martinsville, NJ
  •  + Massena, NY
  •  + Maurice Twp. 1, NJ
  •  + Maurice Twp. 2, NJ
  •  + McGuire AFB, NJ
  •  + Meadville, PA
  •  + Medford, NJ
  •  + Melfa, VA
  •  + Meriden, CT
  •  + Middlebury, VT
  •  + Middlebush (HADS), NJ
  •  + Middlesex (HADS), NJ
  •  + Milford, DE
  •  + Miller Air Park, NJ
  •  + Millsboro, DE
  •  + Millville, NJ
  •  + Milton , MA
  •  + Monksville, NJ
  •  + Montauk, NY
  •  + Montgomery, NY
  •  + Monticello, NY
  •  + Moorestown, NJ
  •  + Morgantown, WV
  •  + Morris Plains, NJ
  •  + Morristown, NJ
  •  + Morristown, NJ
  •  + Morrisville, VT
  •  + Mount Holly, NJ
  •  + Mount Olive Township, NJ
  •  + Mount Pocono, PA
  •  + Mountainside (HADS), NJ
  •  + Mullica Twp., NJ
  •  + Nacote Creek, NJ
  •  + Nantucket, MA
  •  + Nashua, NH
  •  + New Bedford, MA
  •  + New Brunswick, NJ
  •  + New Brunswick (NJDOT), NJ
  •  + New Castle, DE
  •  + New Haven, CT
  •  + New Lisbon, NJ
  •  + New Philadelphia, OH
  •  + New York (Central Park), NY
  •  + New York Downtown Manhattan, NY
  •  + New York JFK, NY
  •  + New York LGA, NY
  •  + Newark, NJ
  •  + Newark, NJ
  •  + Newark (OH), OH
  •  + Newark - Ag Farm, DE
  •  + Newark - White Clay Creek, DE
  •  + Newburgh, NY
  •  + Newport, RI
  •  + Newport News, VA
  •  + Niagara Falls, NY
  •  + Norfolk, VA
  •  + Norfolk, VA
  •  + Norfolk Hampton Roads, VA
  •  + North Adams, MA
  •  + North East, MD
  •  + North Haledon, NJ
  •  + Norwich, NY
  •  + Norwood, MA
  •  + Nottingham, PA
  •  + Oak Ridge Reservoir, NJ
  •  + Oakland, MD
  •  + Oakland, NJ
  •  + Ocean City, MD
  •  + Ocean City, NJ
  •  + Ocean City, NJ
  •  + Ocean City, NJ
  •  + Oceanic Bridge, NJ
  •  + Oceanport, NJ
  •  + Old Bridge, NJ
  •  + Old Bridge, NJ
  •  + Old Bridge Twp., NJ
  •  + Old Bridge Twp. 2, NJ
  •  + Orange, MA
  •  + Orange Reservoir, NJ
  •  + Oswego Lake, NJ
  •  + Oxford, CT
  •  + Park Ridge, NJ
  •  + Parkersburg, WV
  •  + Parsippany, NJ
  •  + Patten Ave. Bridge, NJ
  •  + Patuxent River, MD
  •  + Paulsboro, NJ
  •  + Pawtucket, RI
  •  + Pellettown (HADS), NJ
  •  + Pemberton, NJ
  •  + Penn Yan, NY
  •  + Pennsauken, NJ
  •  + Pequest, NJ
  •  + Perkasie, PA
  •  + Perth Amboy, NJ
  •  + Petersburg, VA
  •  + Pews Creek Bridge, NJ
  •  + Philadelphia, PA
  •  + Philadelphia NE AP, PA
  •  + Picatinny Arsenal, NJ
  •  + Piney Hollow, NJ
  •  + Piscataway 1, NJ
  •  + Piscataway 2, NJ
  •  + Pittsburgh, PA
  •  + Pittsburgh, PA
  •  + Pittsfield, MA
  •  + Pittstown, NJ
  •  + Plattsburgh, NY
  •  + Plymouth, MA
  •  + Point Pleasant, NJ
  •  + Point Pleasant (HADS), NJ
  •  + Point Pleasant (U), NJ
  •  + Point Pleasant 1 (NJDOT), NJ
  •  + Point Pleasant 2 (NJDOT), NJ
  •  + Pompton Lakes, NJ
  •  + Pompton Plains, NJ
  •  + Port Penn, DE
  •  + Portland, ME
  •  + Pottersville (HADS), NJ
  •  + Pottstown, PA
  •  + Pottsville, PA
  •  + Poughkeepsie, NY
  •  + Princessville, NJ
  •  + Providence, RI
  •  + Provincetown, MA
  •  + Quakertown, PA
  •  + Quantico, VA
  •  + Raleigh/Durham, NC
  •  + Ramsey, NJ
  •  + Reading, PA
  •  + Readington, NJ
  •  + Readington, NJ
  •  + Red Lion, NJ
  •  + Rehoboth Beach, DE
  •  + Richmond, VA
  •  + Ridgewood, NJ
  •  + Riegelsville, NJ
  •  + Ringwood, NJ
  •  + Ringwood, NJ
  •  + Roanoke, VA
  •  + Rochester, NH
  •  + Rochester, NY
  •  + Rockland, ME
  •  + Rocky Mount, NC
  •  + Rome, NY
  •  + Rutherford, NJ
  •  + Rutland, VT
  •  + Salisbury, MD
  •  + Sandtown, DE
  •  + Sandy Hook, NJ
  •  + Sandyston, NJ
  •  + Sanford, ME
  •  + Saranac Lake, NY
  •  + Sea Bright, NJ
  •  + Sea Bright, NJ
  •  + Sea Girt, NJ
  •  + Sea Isle City, NJ
  •  + Seaford, DE
  •  + Seaside Heights, NJ
  •  + Seaside Heights, NJ
  •  + Selbyville, DE
  •  + Selinsgrove, PA
  •  + Sewell, NJ
  •  + Shamokin, PA
  •  + Shamong, NJ
  •  + Ship Bottom, NJ
  •  + Shirley, NY
  •  + Sicklerville, NJ
  •  + Silas Little, NJ
  •  + Skillman (HADS), NJ
  •  + Smyrna, DE
  •  + Somerville, NJ
  •  + Somerville (Mercer St), NJ
  •  + Sourland (HADS), NJ
  •  + South Brunswick, NJ
  •  + South Dennis, NJ
  •  + South Harrison, NJ
  •  + Springfield, VT
  •  + St. Inigoes, MD
  •  + St. Johnsbury, VT
  •  + Stafford Forge (HADS), NJ
  •  + Stafford Twp., NJ
  •  + Staunton, VA
  •  + Stevensville, MD
  •  + Stewartsville, NJ
  •  + Stockley, DE
  •  + Stockton (HADS), NJ
  •  + Stone Harbor, NJ
  •  + Summit, NJ
  •  + Sussex, NJ
  •  + Swedesboro (HADS), NJ
  •  + Syracuse, NY
  •  + Tappahannock, VA
  •  + Taunton, MA
  •  + Teetertown, NJ
  •  + Teterboro, NJ
  •  + Tocks Island (HADS), NJ
  •  + Toledo, OH
  •  + Toledo, OH
  •  + Toms River, NJ
  •  + Townsend, DE
  •  + Trenton, NJ
  •  + Trenton Marine Terminal, NJ
  •  + Tuckerton, NJ
  •  + Upper Deerfield, NJ
  •  + Upper Freehold Twp., NJ
  •  + Upper Saddle River (HADS), NJ
  •  + Vernon Twp., NJ
  •  + Verona, NJ
  •  + Vineland, NJ
  •  + Vineyard Haven, MA
  •  + Virginia Beach, VA
  •  + Wakefield, VA
  •  + Wall Twp., NJ
  •  + Wallkill River, NJ
  •  + Wallops Island, VA
  •  + Walpack, NJ
  •  + Wanaque, NJ
  •  + Wanaque, NJ
  •  + Wantage, NJ
  •  + Wantage (old), NJ
  •  + Waretown, NJ
  •  + Warren Twp., NJ
  •  + Warrenton, VA
  •  + Warwick, PA
  •  + Washington Crossing, NJ
  •  + Washington DC, VA
  •  + Washington Dulles, VA
  •  + Watchung, NJ
  •  + Watertown, NY
  •  + Wawayanda, NJ
  •  + Wayne, NJ
  •  + Waynesboro, VA
  •  + Wellsboro, PA
  •  + Wellsville, NY
  •  + West Cape May, NJ
  •  + West Chester, PA
  •  + West Chester, PA
  •  + West Deptford, NJ
  •  + West Grove, PA
  •  + West Milford, NJ
  •  + West Orange 1, NJ
  •  + West Orange 2, NJ
  •  + West Point, VA
  •  + West Wharton, NJ
  •  + West Windsor Twp., NJ
  •  + Westerly, RI
  •  + Westfield, MA
  •  + Westhampton Beach, NY
  •  + Westminster, MD
  •  + Wheeling, WV
  •  + White Plains, NY
  •  + Whitefield, NH
  •  + Whitehouse Station, NJ
  •  + Wildwood, NJ
  •  + Wilkes-Barre/Scranton Intl. AP, PA
  •  + Williamsport, PA
  •  + Willimantic, CT
  •  + Wilmington (ASOS), DE
  •  + Wilmington (OH), OH
  •  + Wilmington - NSWMC, DE
  •  + Wilmington - Pike Creek, DE
  •  + Wilmington - Prices Corner, DE
  •  + Wilmington - Talley, DE
  •  + Winchester, VA
  •  + Windsor Locks, CT
  •  + Wiscasset Airport, ME
  •  + Woodbine, NJ
  •  + Woodbine (R), NJ
  •  + Woodbridge Twp., NJ
  •  + Woodcliff Lake (HADS), NJ
  •  + Woodland Twp., NJ
  •  + Woodside, DE
  •  + Woodstown, NJ
  •  + Wooster, OH
  •  + Worcester, MA
  •  + York, PA
  •  + Youngstown, OH
  •  + Zanesville, OH
data collection created in 0.059151887893677 (queried in 0.013917) rendered in: 0.00084590911865234